Time;durP1;ratioP1;P1;durP2;ratioP2;P2;SDS_P1;SDS_P2;PMS_P1;PMS_P2;Temp;Humidity;BMP_temperature;BMP_pressure;BME280_temperature;BME280_humidity;BME280_pressure;Samples;Min_cycle;Max_cycle;Signal;HPM_P1;HPM_P2
2022/02/04 00:20:07;;;;;;;;;;;;;;;15.41;51.25;100231.00;4967116;27;97896;-62
2022/02/04 00:23:35;;;;;;;;;;;;;;;15.40;51.25;100207.66;4977858;27;98359;-56
2022/02/04 00:28:49;;;;;;;;;;;;;;;15.39;51.37;100211.47;4977702;27;98085;-56
2022/02/04 00:34:15;;;;;;;;;;;;;;;15.39;51.26;100217.72;4977107;28;98072;-55
2022/02/04 00:37:16;;;;;;;;;;;;;;;15.38;51.50;100216.09;4979555;27;98465;-63
2022/02/04 00:39:49;;;;;;;;;;;;;;;15.39;51.54;100214.19;4980071;27;98398;-57
2022/02/04 00:42:15;;;;;;;;;;;;;;;15.39;51.52;100212.28;4980125;28;97901;-56
2022/02/04 00:44:42;;;;;;;;;;;;;;;15.38;51.53;100213.41;4980577;28;98378;-55
2022/02/04 00:47:14;;;;;;;;;;;;;;;15.39;51.22;100212.28;5010958;27;98120;-63
2022/02/04 00:53:05;;;;;;;;;;;;;;;15.39;51.41;100212.28;4980157;28;97836;-57
2022/02/04 00:55:26;;;;;;;;;;;;;;;15.40;51.29;100205.72;4978436;28;99160;-63
2022/02/04 01:06:24;;;;;;;;;;;;;;;15.39;51.67;100206.84;4979990;28;99210;-58
2022/02/04 01:28:04;;;;;;;;;;;;;;;15.42;51.35;100208.16;4976029;28;98414;-63
2022/02/04 01:30:33;;;;;;;;;;;;;;;15.42;51.54;100208.97;4979846;27;129108;-56
2022/02/04 01:32:59;;;;;;;;;;;;;;;15.42;51.23;100206.25;4983274;27;97939;-63
2022/02/04 01:35:25;;;;;;;;;;;;;;;15.42;51.62;100206.25;4983397;27;97745;-63
2022/02/04 01:37:51;;;;;;;;;;;;;;;15.42;51.45;100206.25;4983192;27;98979;-56
2022/02/04 01:40:17;;;;;;;;;;;;;;;15.43;51.41;100216.00;4981364;28;129555;-55
2022/02/04 01:42:43;;;;;;;;;;;;;;;15.43;51.33;100215.19;4982925;27;98689;-56
2022/02/04 01:45:09;;;;;;;;;;;;;;;15.43;51.79;100209.75;4982119;27;121890;-56
2022/02/04 01:47:35;;;;;;;;;;;;;;;15.44;51.37;100222.22;4981443;27;119227;-56
2022/02/04 01:50:01;;;;;;;;;;;;;;;15.44;51.50;100211.34;5013820;27;109303;-56
2022/02/04 01:52:27;;;;;;;;;;;;;;;15.44;51.33;100216.78;4980987;28;128861;-63
2022/02/04 01:54:53;;;;;;;;;;;;;;;15.44;51.42;100214.91;4982049;27;123143;-63
2022/02/04 01:57:18;;;;;;;;;;;;;;;15.45;51.75;100215.69;4981898;27;121673;-55
2022/02/04 01:59:44;;;;;;;;;;;;;;;15.45;51.35;100215.69;4982317;28;117957;-63
2022/02/04 02:02:10;;;;;;;;;;;;;;;15.45;51.55;100219.22;4980859;28;126511;-56
2022/02/04 02:04:36;;;;;;;;;;;;;;;15.46;51.30;100214.59;4983073;28;102318;-54
2022/02/04 02:07:09;;;;;;;;;;;;;;;15.46;51.26;100220.00;4981930;27;110765;-63
2022/02/04 02:12:18;;;;;;;;;;;;;;;15.46;51.37;100220.81;4981969;27;98360;-63
2022/02/04 02:14:45;;;;;;;;;;;;;;;15.46;51.56;100226.25;4982623;27;97893;-56
2022/02/04 02:49:37;;;;;;;;;;;;;;;15.42;51.51;100230.69;4979031;27;98640;-55
2022/02/04 02:55:00;;;;;;;;;;;;;;;15.42;51.51;100233.41;4978825;27;98033;-56
2022/02/04 02:57:45;;;;;;;;;;;;;;;15.42;51.83;100232.59;4981631;27;97853;-63
2022/02/04 03:02:59;;;;;;;;;;;;;;;15.42;51.63;100229.88;4978725;27;98002;-56
2022/02/04 03:05:25;;;;;;;;;;;;;;;15.42;51.46;100224.44;4981597;27;98118;-55
2022/02/04 03:07:51;;;;;;;;;;;;;;;15.42;51.62;100232.59;4980341;28;113156;-63
2022/02/04 03:10:17;;;;;;;;;;;;;;;15.43;51.84;100231.47;4961843;27;128052;-55
2022/02/04 03:12:44;;;;;;;;;;;;;;;15.42;51.61;100233.41;4978155;28;128032;-56
2022/02/04 03:15:10;;;;;;;;;;;;;;;15.41;51.48;100226.38;4981506;27;98255;-63
2022/02/04 03:17:37;;;;;;;;;;;;;;;15.41;51.79;100229.09;4981483;27;97996;-61
2022/02/04 03:20:10;;;;;;;;;;;;;;;15.42;51.63;100227.16;4979627;28;98380;-56
2022/02/04 03:22:36;;;;;;;;;;;;;;;15.40;51.52;100230.16;4981315;28;98608;-56
2022/02/04 03:25:06;;;;;;;;;;;;;;;15.40;51.76;100232.88;4981188;27;98498;-57
2022/02/04 03:27:51;;;;;;;;;;;;;;;15.40;51.52;100235.59;4981859;27;97884;-55
2022/02/04 03:30:28;;;;;;;;;;;;;;;15.41;51.62;100231.00;4972130;28;98652;-63
2022/02/04 03:32:59;;;;;;;;;;;;;;;15.41;51.81;100233.72;4981422;28;98505;-63
2022/02/04 03:35:25;;;;;;;;;;;;;;;15.40;51.92;100235.59;4981369;27;98140;-55
2022/02/04 03:37:52;;;;;;;;;;;;;;;15.40;51.60;100237.53;4980718;27;98024;-63
2022/02/04 03:40:18;;;;;;;;;;;;;;;15.40;51.86;100235.59;4980637;27;112813;-63
2022/02/04 03:42:45;;;;;;;;;;;;;;;15.39;51.82;100242.16;4981427;28;98213;-63
2022/02/04 03:45:11;;;;;;;;;;;;;;;15.40;51.15;100246.47;4978931;27;105264;-55
2022/02/04 03:47:37;;;;;;;;;;;;;;;15.39;51.55;100242.16;4981015;27;114862;-63
2022/02/04 03:50:03;;;;;;;;;;;;;;;15.39;51.56;100244.88;4980231;28;113877;-63
2022/02/04 03:52:29;;;;;;;;;;;;;;;15.39;51.78;100239.44;4980324;27;113780;-56
2022/02/04 03:54:55;;;;;;;;;;;;;;;15.40;51.67;100232.09;4980716;27;118878;-55
2022/02/04 03:57:21;;;;;;;;;;;;;;;15.39;51.83;100228.56;4980941;27;121622;-56
2022/02/04 03:59:47;;;;;;;;;;;;;;;15.40;51.82;100229.38;4979340;28;128620;-56
2022/02/04 04:02:14;;;;;;;;;;;;;;;15.38;51.72;100235.13;4978290;28;129459;-56
2022/02/04 04:04:40;;;;;;;;;;;;;;;15.37;51.47;100230.81;4981400;27;98511;-63
2022/02/04 04:07:06;;;;;;;;;;;;;;;15.37;51.84;100233.53;4979476;27;97940;-56
2022/02/04 04:09:35;;;;;;;;;;;;;;;15.37;51.56;100232.72;4980265;28;129041;-55
2022/02/04 04:12:01;;;;;;;;;;;;;;;15.37;51.79;100225.38;4981090;27;99405;-56
2022/02/04 04:14:27;;;;;;;;;;;;;;;15.37;51.51;100232.72;4980835;28;98047;-63
2022/02/04 04:16:53;;;;;;;;;;;;;;;15.38;51.86;100237.03;4979557;28;122008;-56
2022/02/04 04:19:19;;;;;;;;;;;;;;;15.37;51.79;100236.22;4980065;28;105223;-55
2022/02/04 04:21:46;;;;;;;;;;;;;;;15.37;52.00;100235.44;4979258;28;112170;-63
2022/02/04 04:24:12;;;;;;;;;;;;;;;15.36;51.57;100234.59;4980226;27;98615;-56
2022/02/04 04:26:40;;;;;;;;;;;;;;;15.35;51.36;100240.34;4980174;27;115339;-56
2022/02/04 04:29:09;;;;;;;;;;;;;;;15.35;51.67;100234.91;4981190;27;98100;-63
2022/02/04 04:31:35;;;;;;;;;;;;;;;15.36;51.66;100245.47;4980173;28;98683;-55
2022/02/04 04:34:01;;;;;;;;;;;;;;;15.34;51.71;100239.56;4978857;28;128288;-57
2022/02/04 04:36:28;;;;;;;;;;;;;;;15.34;51.79;100239.56;4979662;27;97835;-63
2022/02/04 04:39:11;;;;;;;;;;;;;;;15.34;51.54;100239.56;4980289;27;99307;-56
2022/02/04 05:26:03;;;;;;;;;;;;;;;15.31;51.34;100232.00;4977136;28;97972;-56
2022/02/04 05:30:58;;;;;;;;;;;;;;;15.30;51.39;100230.41;4976828;27;97834;-56
2022/02/04 05:33:24;;;;;;;;;;;;;;;15.31;51.68;100242.06;4978766;28;128388;-56
2022/02/04 05:35:50;;;;;;;;;;;;;;;15.31;51.63;100231.22;4979173;27;111517;-56
2022/02/04 05:38:17;;;;;;;;;;;;;;;15.31;51.62;100228.50;4977658;28;128522;-55
2022/02/04 05:40:46;;;;;;;;;;;;;;;15.32;51.55;100235.53;4978315;28;98100;-56
2022/02/04 05:43:25;;;;;;;;;;;;;;;15.31;51.40;100237.44;4978921;27;99128;-56
2022/02/04 05:46:00;;;;;;;;;;;;;;;15.31;51.39;100231.22;4976991;27;98807;-56
2022/02/04 05:48:27;;;;;;;;;;;;;;;15.31;51.58;100231.22;4975668;28;97968;-55
2022/02/04 05:53:53;;;;;;;;;;;;;;;15.31;51.51;100234.72;4970851;28;98415;-56
2022/02/04 06:01:49;;;;;;;;;;;;;;;15.31;51.67;100239.34;4974247;28;99640;-56
2022/02/04 06:04:31;;;;;;;;;;;;;;;15.30;51.62;100233.13;4975251;27;98736;-55
2022/02/04 06:15:12;;;;;;;;;;;;;;;15.29;51.08;100246.97;4975003;27;97971;-55
2022/02/04 06:23:09;;;;;;;;;;;;;;;15.27;51.16;100250.00;4978809;28;97683;-57
2022/02/04 06:25:36;;;;;;;;;;;;;;;15.27;51.36;100262.78;4981375;27;99203;-56
2022/02/04 06:28:02;;;;;;;;;;;;;;;15.26;51.26;100250.34;4981269;27;98174;-56
2022/02/04 06:30:28;;;;;;;;;;;;;;;15.26;51.06;100267.44;4980657;27;127272;-55
2022/02/04 06:32:54;;;;;;;;;;;;;;;15.26;51.35;100270.13;4980561;28;113107;-56
2022/02/04 06:35:19;;;;;;;;;;;;;;;15.24;51.07;100269.63;4979692;28;127380;-63
2022/02/04 06:37:45;;;;;;;;;;;;;;;15.25;51.28;100268.53;4981819;27;118612;-56
2022/02/04 06:40:12;;;;;;;;;;;;;;;15.26;51.29;100274.78;4981121;28;127006;-56
2022/02/04 06:42:37;;;;;;;;;;;;;;;15.25;51.38;100276.69;4981375;27;111702;-63
2022/02/04 06:45:05;;;;;;;;;;;;;;;15.25;51.27;100278.56;4981489;28;128007;-56
2022/02/04 06:47:31;;;;;;;;;;;;;;;15.27;51.36;100273.66;4981590;27;99247;-55
2022/02/04 06:49:57;;;;;;;;;;;;;;;15.26;51.36;100277.47;4981571;28;100642;-56
2022/02/04 06:52:23;;;;;;;;;;;;;;;15.25;51.16;100275.84;4980899;28;121313;-63
2022/02/04 06:54:49;;;;;;;;;;;;;;;15.26;50.81;100275.56;4981214;28;128362;-56
2022/02/04 06:57:15;;;;;;;;;;;;;;;15.27;51.00;100288.03;4981588;27;98813;-63
2022/02/04 06:59:43;;;;;;;;;;;;;;;15.29;50.78;100285.84;4981650;28;98392;-63
2022/02/04 07:02:09;;;;;;;;;;;;;;;15.31;51.05;100285.53;4970436;28;97865;-56
2022/02/04 07:04:36;;;;;;;;;;;;;;;15.32;51.04;100284.41;4981374;28;123067;-56
2022/02/04 07:07:02;;;;;;;;;;;;;;;15.32;51.16;100292.53;4981730;27;98852;-63
2022/02/04 07:15:05;;;;;;;;;;;;;;;15.36;51.00;100288.91;4982298;27;98096;-56
2022/02/04 07:20:03;;;;;;;;;;;;;;;15.39;50.66;100280.16;4976488;28;97904;-56
2022/02/04 07:22:31;;;;;;;;;;;;;;;15.42;50.62;100284.19;4981426;28;107235;-55
2022/02/04 07:24:59;;;;;;;;;;;;;;;15.42;50.91;100282.28;4981238;27;98753;-56
2022/02/04 07:27:26;;;;;;;;;;;;;;;15.46;50.53;100287.91;4980157;27;98975;-63
2022/02/04 07:29:53;;;;;;;;;;;;;;;15.48;50.82;100282.97;4980648;27;99829;-56
2022/02/04 07:40:53;;;;;;;;;;;;;;;15.59;50.17;100276.22;4977184;27;98097;-62
2022/02/04 07:42:57;;;;;;;;;;;;;;;15.67;50.51;100282.88;4979393;27;98251;-56
2022/02/04 07:45:23;;;;;;;;;;;;;;;15.70;50.42;100284.97;4979682;27;128054;-63
2022/02/04 07:47:50;;;;;;;;;;;;;;;15.74;50.45;100285.19;4979069;28;100008;-56
2022/02/04 07:50:21;;;;;;;;;;;;;;;15.75;50.11;100290.28;4977926;27;128118;-63
2022/02/04 07:52:53;;;;;;;;;;;;;;;15.77;50.76;100282.66;4980675;27;97926;-63
2022/02/04 07:55:19;;;;;;;;;;;;;;;15.80;50.34;100281.22;4981210;27;102201;-63
2022/02/04 07:57:45;;;;;;;;;;;;;;;15.81;50.54;100278.22;4979748;27;125721;-63
2022/02/04 08:00:14;;;;;;;;;;;;;;;15.83;50.51;100284.13;4980436;27;98889;-56
2022/02/04 08:02:41;;;;;;;;;;;;;;;15.85;50.47;100281.94;4979173;28;98190;-55
2022/02/04 08:05:09;;;;;;;;;;;;;;;15.86;50.62;100283.53;4981295;28;103056;-63
2022/02/04 08:08:22;;;;;;;;;;;;;;;15.88;50.39;100283.22;4981072;27;98712;-63
2022/02/04 08:26:10;;;;;;;;;;;;;;;16.23;50.23;100269.88;4978550;27;98608;-56
2022/02/04 08:28:58;;;;;;;;;;;;;;;16.31;50.16;100269.97;4980385;28;98566;-55
2022/02/04 08:32:02;;;;;;;;;;;;;;;16.41;50.00;100271.63;4981116;27;98358;-56
2022/02/04 08:48:24;;;;;;;;;;;;;;;16.63;50.10;100276.22;4977138;28;98272;-56
2022/02/04 08:56:23;;;;;;;;;;;;;;;16.72;50.22;100277.06;4978411;28;98023;-63
2022/02/04 08:58:58;;;;;;;;;;;;;;;16.74;50.20;100284.94;4962183;28;98162;-64
2022/02/04 09:01:31;;;;;;;;;;;;;;;16.75;50.25;100290.09;4980151;27;98328;-63
2022/02/04 09:04:12;;;;;;;;;;;;;;;16.79;50.23;100282.91;4979655;27;97832;-63
2022/02/04 09:06:42;;;;;;;;;;;;;;;16.85;50.04;100284.34;4963866;28;98287;-56
2022/02/04 09:09:15;;;;;;;;;;;;;;;16.89;49.90;100270.91;4961081;28;98562;-54
2022/02/04 09:11:46;;;;;;;;;;;;;;;16.95;50.24;100274.31;4978717;28;97933;-56
2022/02/04 09:17:17;;;;;;;;;;;;;;;17.06;50.02;100267.47;4980332;27;98090;-56
2022/02/04 09:20:08;;;;;;;;;;;;;;;17.15;50.00;100258.22;4977435;28;99216;-56
2022/02/04 09:22:47;;;;;;;;;;;;;;;17.27;49.85;100256.81;4978242;27;98908;-56
2022/02/04 09:25:13;;;;;;;;;;;;;;;17.34;49.72;100255.22;4979415;27;98719;-56
2022/02/04 09:27:39;;;;;;;;;;;;;;;17.46;49.63;100257.31;4977825;27;123531;-56
2022/02/04 09:30:06;;;;;;;;;;;;;;;17.64;49.44;100247.22;4976731;28;98457;-56
2022/02/04 09:32:36;;;;;;;;;;;;;;;17.80;49.33;100247.59;4977133;27;117262;-56
2022/02/04 09:35:05;;;;;;;;;;;;;;;17.99;49.10;100241.81;4978477;27;97808;-56
2022/02/04 09:37:31;;;;;;;;;;;;;;;18.16;48.91;100252.72;4978657;27;97890;-57
2022/02/04 09:39:57;;;;;;;;;;;;;;;18.45;48.47;100243.81;4978513;28;127949;-56
2022/02/04 09:42:24;;;;;;;;;;;;;;;18.61;48.63;100249.56;4977980;28;115998;-56
2022/02/04 09:44:49;;;;;;;;;;;;;;;18.72;48.50;100247.31;4978312;27;98054;-56
2022/02/04 09:47:23;;;;;;;;;;;;;;;18.81;48.64;100248.06;4977717;28;98039;-57
2022/02/04 09:49:54;;;;;;;;;;;;;;;18.83;48.70;100245.81;4977973;27;98127;-56
2022/02/04 10:12:12;;;;;;;;;;;;;;;18.70;48.93;100236.69;4980110;28;97848;-57
2022/02/04 10:14:52;;;;;;;;;;;;;;;18.74;48.86;100234.13;4980231;27;99525;-56
2022/02/04 10:17:27;;;;;;;;;;;;;;;18.71;49.01;100234.78;4981686;27;97921;-57
2022/02/04 10:19:57;;;;;;;;;;;;;;;18.57;49.33;100229.50;4981555;28;98023;-56
2022/02/04 10:22:27;;;;;;;;;;;;;;;18.50;49.31;100230.00;4981767;28;97992;-56
2022/02/04 10:25:03;;;;;;;;;;;;;;;18.46;49.40;100234.50;4981820;27;99133;-56
2022/02/04 10:27:32;;;;;;;;;;;;;;;18.43;49.34;100237.06;4980857;28;97922;-56
2022/02/04 10:30:19;;;;;;;;;;;;;;;18.36;49.47;100235.66;4981888;27;98023;-57
2022/02/04 10:32:54;;;;;;;;;;;;;;;18.29;49.69;100229.09;4980386;27;108864;-56
2022/02/04 10:35:27;;;;;;;;;;;;;;;18.26;49.69;100227.03;4981422;27;98424;-56
2022/02/04 10:38:18;;;;;;;;;;;;;;;18.26;49.69;100227.03;4979765;28;98172;-56
2022/02/04 10:40:58;;;;;;;;;;;;;;;18.22;49.65;100215.16;4981370;27;98017;-56
2022/02/04 10:43:53;;;;;;;;;;;;;;;18.22;49.68;100224.13;4980582;27;98304;-56
2022/02/04 10:46:45;;;;;;;;;;;;;;;18.19;49.60;100222.06;4981744;27;99120;-56
2022/02/04 10:52:41;;;;;;;;;;;;;;;18.14;49.83;100208.59;4980533;27;97977;-56
2022/02/04 10:55:35;;;;;;;;;;;;;;;18.14;49.67;100206.66;4980041;28;98681;-56
2022/02/04 10:58:24;;;;;;;;;;;;;;;18.16;49.58;100203.63;4981471;27;99443;-56
2022/02/04 11:01:08;;;;;;;;;;;;;;;18.15;49.65;100200.06;4967405;28;98201;-57
2022/02/04 11:03:38;;;;;;;;;;;;;;;18.19;49.50;100188.53;4964256;28;97949;-56
2022/02/04 11:06:18;;;;;;;;;;;;;;;18.22;49.57;100190.59;4981600;27;98196;-57
2022/02/04 11:08:59;;;;;;;;;;;;;;;18.19;49.44;100192.03;4981021;27;98648;-56
2022/02/04 11:11:52;;;;;;;;;;;;;;;18.30;49.49;100176.13;4980584;27;98034;-56
2022/02/04 11:33:48;;;;;;;;;;;;;;;18.95;48.86;100166.72;4978715;27;97885;-56
2022/02/04 11:36:39;;;;;;;;;;;;;;;19.01;48.58;100157.19;4961562;28;97640;-56
2022/02/04 11:52:09;;;;;;;;;;;;;;;18.98;48.97;100140.66;4974161;27;98441;-63
2022/02/04 11:57:02;;;;;;;;;;;;;;;18.90;48.91;100128.69;4977581;27;97993;-56
2022/02/04 11:59:44;;;;;;;;;;;;;;;18.97;48.88;100133.63;4977885;28;98044;-63
2022/02/04 12:02:29;;;;;;;;;;;;;;;19.01;48.77;100124.44;4977372;27;98756;-56
2022/02/04 12:07:40;;;;;;;;;;;;;;;18.98;48.79;100121.56;4977224;27;98017;-56
2022/02/04 12:10:12;;;;;;;;;;;;;;;19.05;48.60;100103.50;4978063;28;97901;-62
2022/02/04 12:12:59;;;;;;;;;;;;;;;19.14;48.36;100100.75;4977785;28;100219;-56
2022/02/04 12:15:28;;;;;;;;;;;;;;;19.34;47.99;100091.72;4971858;27;98409;-64
2022/02/04 12:18:01;;;;;;;;;;;;;;;19.42;47.92;100094.72;4977908;28;97991;-64
2022/02/04 12:20:55;;;;;;;;;;;;;;;19.42;48.07;100092.78;4978690;27;97930;-57
2022/02/04 12:23:29;;;;;;;;;;;;;;;19.47;48.10;100089.84;4977242;28;98177;-63
2022/02/04 12:26:04;;;;;;;;;;;;;;;19.55;47.75;100082.69;4976746;27;99337;-63
2022/02/04 12:28:56;;;;;;;;;;;;;;;19.62;47.80;100088.44;4977172;27;97975;-63
2022/02/04 12:31:30;;;;;;;;;;;;;;;19.64;47.76;100085.38;4976697;28;97876;-63
2022/02/04 12:33:59;;;;;;;;;;;;;;;19.61;47.85;100084.91;4976424;28;98939;-54
2022/02/04 12:36:29;;;;;;;;;;;;;;;19.57;47.98;100073.03;4978625;27;98649;-63
2022/02/04 12:39:28;;;;;;;;;;;;;;;19.47;48.04;100084.38;4976180;28;118321;-64
2022/02/04 12:41:58;;;;;;;;;;;;;;;19.36;48.31;100077.72;4961582;28;98259;-63
2022/02/04 12:44:28;;;;;;;;;;;;;;;19.33;48.26;100078.38;4973828;28;120616;-57
2022/02/04 12:46:56;;;;;;;;;;;;;;;19.33;48.34;100065.50;4976247;27;119943;-57
2022/02/04 12:49:23;;;;;;;;;;;;;;;19.27;48.20;100071.53;4976675;27;98407;-56
2022/02/04 12:52:17;;;;;;;;;;;;;;;19.20;48.36;100076.75;4976850;28;97940;-56
2022/02/04 12:54:47;;;;;;;;;;;;;;;19.16;48.12;100062.16;4975804;28;98384;-63
2022/02/04 12:59:59;;;;;;;;;;;;;;;19.17;48.03;100050.09;4973301;27;98107;-64
2022/02/04 13:10:40;;;;;;;;;;;;;;;19.23;48.02;100032.38;4973029;27;98037;-56
2022/02/04 13:13:11;;;;;;;;;;;;;;;19.28;47.84;100032.94;4977119;28;97785;-63
2022/02/04 13:15:38;;;;;;;;;;;;;;;19.33;47.68;100023.72;4976444;27;97757;-63
2022/02/04 13:18:14;;;;;;;;;;;;;;;19.34;47.91;100023.41;4977442;27;98950;-56
2022/02/04 13:20:42;;;;;;;;;;;;;;;19.34;48.09;100023.41;4976094;27;98892;-57
2022/02/04 13:23:10;;;;;;;;;;;;;;;19.36;48.04;100021.13;4973798;28;97912;-63
2022/02/04 13:25:40;;;;;;;;;;;;;;;19.33;47.72;100015.53;4975082;27;99139;-63
2022/02/04 13:28:14;;;;;;;;;;;;;;;19.25;48.20;100008.22;4979897;27;98507;-63
2022/02/04 13:31:06;;;;;;;;;;;;;;;19.20;48.08;100011.19;4979789;27;98186;-64
2022/02/04 13:33:46;;;;;;;;;;;;;;;19.19;48.07;100007.66;4979656;27;98151;-56
2022/02/04 13:36:28;;;;;;;;;;;;;;;19.15;48.11;100009.47;4979446;27;99121;-63
2022/02/04 13:39:12;;;;;;;;;;;;;;;19.11;48.31;100003.88;4979603;27;98736;-56
2022/02/04 13:41:53;;;;;;;;;;;;;;;19.06;48.03;99995.06;4973168;27;97899;-63
2022/02/04 13:44:31;;;;;;;;;;;;;;;19.01;48.09;99998.81;4976262;28;98106;-63
2022/02/04 13:50:03;;;;;;;;;;;;;;;18.94;47.98;99984.09;4977102;27;98362;-56
2022/02/04 13:55:36;;;;;;;;;;;;;;;18.85;48.16;99981.44;4976419;27;97744;-57
2022/02/04 13:58:26;;;;;;;;;;;;;;;18.79;47.94;99978.13;4971508;28;98493;-63
2022/02/04 14:03:40;;;;;;;;;;;;;;;18.76;48.07;99973.31;4971568;28;98379;-63
2022/02/04 14:06:11;;;;;;;;;;;;;;;18.73;47.99;99965.00;4977757;27;98217;-56
2022/02/04 14:08:49;;;;;;;;;;;;;;;18.69;48.09;99970.28;4977557;28;98512;-63
2022/02/04 14:11:37;;;;;;;;;;;;;;;18.66;48.10;99962.78;4973832;27;98892;-56
2022/02/04 14:14:19;;;;;;;;;;;;;;;18.62;48.17;99964.56;4979428;27;117157;-56
2022/02/04 14:16:51;;;;;;;;;;;;;;;18.59;48.20;99957.88;4976546;27;97924;-56
2022/02/04 14:19:17;;;;;;;;;;;;;;;18.59;48.11;99940.69;4979277;27;99077;-56
2022/02/04 14:21:43;;;;;;;;;;;;;;;18.57;47.97;99948.41;4978649;27;127693;-63
2022/02/04 14:24:11;;;;;;;;;;;;;;;18.53;48.06;99948.25;4978418;28;116976;-63
2022/02/04 14:26:44;;;;;;;;;;;;;;;18.50;48.08;99940.75;4986503;27;97853;-57
2022/02/04 14:29:17;;;;;;;;;;;;;;;18.49;48.20;99946.53;4979767;28;98333;-63
2022/02/04 14:34:43;;;;;;;;;;;;;;;18.41;48.03;99940.00;4976184;28;98067;-56
2022/02/04 14:51:43;;;;;;;;;;;;;;;18.13;48.15;99920.63;4973855;27;98199;-56
2022/02/04 14:54:06;;;;;;;;;;;;;;;18.09;48.14;99916.97;4976031;28;98674;-63
2022/02/04 15:01:54;;;;;;;;;;;;;;;17.96;48.12;99907.91;4967195;27;107622;-56
2022/02/04 15:04:43;;;;;;;;;;;;;;;17.92;48.06;99906.97;4972668;28;99166;-57
2022/02/04 15:07:10;;;;;;;;;;;;;;;17.87;48.05;99886.13;4971613;27;98299;-56
2022/02/04 15:09:40;;;;;;;;;;;;;;;17.85;48.00;99879.44;4975980;28;97887;-63
2022/02/04 15:12:06;;;;;;;;;;;;;;;17.80;48.10;99877.69;4966703;27;98612;-63
2022/02/04 15:14:32;;;;;;;;;;;;;;;17.77;48.11;99872.09;4977134;27;98784;-63
2022/02/04 15:16:58;;;;;;;;;;;;;;;17.73;48.15;99888.28;4976052;27;100154;-63
2022/02/04 15:19:24;;;;;;;;;;;;;;;17.72;48.08;99886.66;4976159;27;122319;-56
2022/02/04 15:21:52;;;;;;;;;;;;;;;17.70;48.08;99885.41;4975684;28;98680;-56
2022/02/04 15:24:18;;;;;;;;;;;;;;;17.64;48.24;99874.72;4975922;28;98248;-63
2022/02/04 15:26:44;;;;;;;;;;;;;;;17.62;48.19;99881.59;4976420;27;98406;-64
2022/02/04 15:29:13;;;;;;;;;;;;;;;17.60;48.10;99878.38;4976456;27;98401;-63
2022/02/04 15:31:46;;;;;;;;;;;;;;;17.56;48.05;99874.72;4975676;27;98333;-56
2022/02/04 15:34:14;;;;;;;;;;;;;;;17.51;47.98;99866.75;4976080;27;98931;-64
2022/02/04 15:36:43;;;;;;;;;;;;;;;17.46;48.09;99872.38;4976175;27;98218;-58
2022/02/04 15:39:11;;;;;;;;;;;;;;;17.40;48.08;99867.09;4976897;27;99222;-57
2022/02/04 15:41:39;;;;;;;;;;;;;;;17.34;47.93;99857.53;4968453;28;98465;-57
2022/02/04 15:53:14;;;;;;;;;;;;;;;17.11;47.86;99854.25;4932475;28;98990;-63
2022/02/04 15:56:05;;;;;;;;;;;;;;;17.06;47.95;99862.59;4974090;27;99345;-63
2022/02/04 15:58:53;;;;;;;;;;;;;;;17.03;48.12;99867.88;4975600;28;97975;-56
2022/02/04 16:06:24;;;;;;;;;;;;;;;16.92;48.08;99870.94;4980624;27;99758;-63
2022/02/04 16:08:53;;;;;;;;;;;;;;;16.90;48.12;99875.94;4974971;27;98498;-57
2022/02/04 16:16:43;;;;;;;;;;;;;;;16.85;48.09;99869.84;4997097;27;98453;-63
2022/02/04 16:19:33;;;;;;;;;;;;;;;16.84;48.01;99870.97;4980659;27;98628;-56
2022/02/04 16:29:54;;;;;;;;;;;;;;;16.77;48.01;99841.53;4971716;28;97929;-57
2022/02/04 16:32:20;;;;;;;;;;;;;;;16.75;47.89;99843.78;4975208;28;97987;-63
2022/02/04 16:34:53;;;;;;;;;;;;;;;16.75;48.00;99840.25;4972323;28;128015;-63
2022/02/04 16:37:28;;;;;;;;;;;;;;;16.73;47.83;99834.28;4957077;28;100496;-56
2022/02/04 16:39:58;;;;;;;;;;;;;;;16.72;47.84;99832.72;4977676;27;98125;-57
2022/02/04 16:42:25;;;;;;;;;;;;;;;16.71;47.91;99834.63;4975414;27;97978;-63
2022/02/04 16:44:51;;;;;;;;;;;;;;;16.69;47.86;99831.44;4974508;27;99055;-57
2022/02/04 16:47:17;;;;;;;;;;;;;;;16.68;47.61;99832.56;4974338;27;119193;-63
2022/02/04 16:49:43;;;;;;;;;;;;;;;16.68;47.77;99821.66;4975499;28;104920;-63
2022/02/04 16:52:10;;;;;;;;;;;;;;;16.65;47.62;99817.66;4974907;28;99133;-63
2022/02/04 16:54:37;;;;;;;;;;;;;;;16.64;47.78;99816.06;4975017;27;98718;-63
2022/02/04 16:57:03;;;;;;;;;;;;;;;16.62;47.43;99804.72;4975168;28;99189;-56
2022/02/04 16:59:29;;;;;;;;;;;;;;;16.63;47.60;99803.59;4974006;27;98889;-64
2022/02/04 17:01:56;;;;;;;;;;;;;;;16.62;47.43;99795.75;4974909;27;98260;-64
2022/02/04 17:04:23;;;;;;;;;;;;;;;16.61;47.48;99791.44;4974639;28;98641;-63
2022/02/04 17:06:57;;;;;;;;;;;;;;;16.60;47.65;99793.34;4973980;27;99143;-63
2022/02/04 17:09:28;;;;;;;;;;;;;;;16.59;47.41;99789.03;4972612;28;97978;-56
2022/02/04 17:12:02;;;;;;;;;;;;;;;16.57;47.46;99787.75;4975125;27;98084;-56
2022/02/04 17:14:29;;;;;;;;;;;;;;;16.56;47.51;99786.97;4974634;27;98785;-63
2022/02/04 17:16:56;;;;;;;;;;;;;;;16.55;47.46;99782.66;4972307;27;99387;-56
2022/02/04 17:19:25;;;;;;;;;;;;;;;16.55;47.49;99790.03;4974367;28;98606;-56
2022/02/04 17:21:51;;;;;;;;;;;;;;;16.54;47.40;99785.69;4973181;27;98211;-63
2022/02/04 17:24:18;;;;;;;;;;;;;;;16.52;47.53;99799.63;4973905;28;98305;-63
2022/02/04 17:26:44;;;;;;;;;;;;;;;16.52;47.39;99799.63;4974606;27;98208;-63
2022/02/04 17:29:12;;;;;;;;;;;;;;;16.51;47.37;99789.06;4972941;28;128326;-56
2022/02/04 17:31:38;;;;;;;;;;;;;;;16.50;47.29;99787.44;4974555;27;98332;-64
2022/02/04 17:34:04;;;;;;;;;;;;;;;16.49;47.45;99786.66;4971499;28;128234;-63
2022/02/04 17:36:34;;;;;;;;;;;;;;;16.48;47.29;99798.66;4973097;27;98539;-56
2022/02/04 17:39:01;;;;;;;;;;;;;;;16.45;47.27;99786.50;4981690;27;98134;-63
2022/02/04 17:41:27;;;;;;;;;;;;;;;16.47;47.14;99788.91;4973363;27;98072;-56
2022/02/04 17:43:54;;;;;;;;;;;;;;;16.46;47.14;99784.56;4973765;27;109845;-63
2022/02/04 17:46:25;;;;;;;;;;;;;;;16.45;47.27;99774.81;4974785;27;98263;-56
2022/02/04 17:49:05;;;;;;;;;;;;;;;16.45;47.07;99777.53;4973608;27;98105;-56
2022/02/04 17:51:40;;;;;;;;;;;;;;;16.44;47.22;99784.09;4970812;27;98022;-56
2022/02/04 17:54:09;;;;;;;;;;;;;;;16.43;47.05;99777.88;4971735;27;98992;-57
2022/02/04 17:56:49;;;;;;;;;;;;;;;16.42;47.06;99772.75;4970399;27;98714;-57
2022/02/04 18:02:24;;;;;;;;;;;;;;;16.40;46.99;99769.56;4961864;27;99430;-64
2022/02/04 18:07:34;;;;;;;;;;;;;;;16.39;47.19;99765.25;4914402;28;97918;-56
2022/02/04 18:10:00;;;;;;;;;;;;;;;16.36;47.16;99763.16;4914184;28;98871;-56
2022/02/04 18:12:31;;;;;;;;;;;;;;;16.36;46.99;99757.72;4911701;28;127492;-57
2022/02/04 18:14:57;;;;;;;;;;;;;;;16.34;47.00;99760.75;4908407;28;98257;-57
2022/02/04 18:17:23;;;;;;;;;;;;;;;16.34;47.03;99759.97;4910100;28;122845;-63
2022/02/04 18:19:49;;;;;;;;;;;;;;;16.33;46.90;99745.56;4916169;28;128436;-63
2022/02/04 18:22:15;;;;;;;;;;;;;;;16.33;47.13;99752.94;4908066;28;127652;-63
2022/02/04 18:24:41;;;;;;;;;;;;;;;16.32;47.02;99754.06;4910704;28;114532;-63
2022/02/04 18:27:08;;;;;;;;;;;;;;;16.31;46.91;99755.97;4917847;28;98506;-63
2022/02/04 18:29:40;;;;;;;;;;;;;;;16.31;46.88;99757.88;4915450;28;97790;-56
2022/02/04 18:32:06;;;;;;;;;;;;;;;16.30;46.87;99759.00;4917330;28;98859;-56
2022/02/04 18:34:32;;;;;;;;;;;;;;;16.28;46.89;99753.09;4916431;28;99325;-56
2022/02/04 18:37:01;;;;;;;;;;;;;;;16.28;46.95;99748.47;4916331;28;99177;-63
2022/02/04 18:39:39;;;;;;;;;;;;;;;16.28;47.01;99750.38;4911105;28;99229;-56
2022/02/04 18:44:33;;;;;;;;;;;;;;;16.26;46.94;99742.53;4911517;28;97888;-63
2022/02/04 18:47:08;;;;;;;;;;;;;;;16.24;46.74;99749.44;4917529;28;97973;-64
2022/02/04 18:49:42;;;;;;;;;;;;;;;16.25;46.88;99751.81;4911446;28;98307;-56
2022/02/04 18:54:46;;;;;;;;;;;;;;;16.24;47.10;99736.63;4910792;28;98445;-56
2022/02/04 18:57:21;;;;;;;;;;;;;;;16.24;46.85;99744.00;4913850;28;98031;-57
2022/02/04 18:59:57;;;;;;;;;;;;;;;16.23;46.79;99740.47;4908958;28;99300;-56